Time;durP1;ratioP1;P1;durP2;ratioP2;P2;SDS_P1;SDS_P2;PMS_P1;PMS_P2;Temp;Humidity;BMP_temperature;BMP_pressure;BME280_temperature;BME280_humidity;BME280_pressure;Samples;Min_cycle;Max_cycle;Signal;HPM_P1;HPM_P2
2022/12/29 00:01:33;;;;;;;;;;;;;;;;;;5096915;28;19920;-68
2022/12/29 00:03:59;;;;;;;;;;;;;;;;;;5096744;28;19909;-68
2022/12/29 00:06:24;;;;;;;;;;;;;;;;;;5097091;28;19916;-67
2022/12/29 00:08:50;;;;;;;;;;;;;;;;;;5095929;28;20360;-67
2022/12/29 00:11:16;;;;;;;;;;;;;;;;;;5096609;28;19955;-67
2022/12/29 00:16:27;;;;;;;;;;;;;;;;;;5096984;28;20429;-67
2022/12/29 00:18:53;;;;;;;;;;;;;;;;;;5096449;28;19999;-67
2022/12/29 00:35:08;;;;;;;;;;;;;;;;;;5096384;28;20007;-67
2022/12/29 00:45:48;;;;;;;;;;;;;;;;;;5095951;28;19915;-67
2022/12/29 00:48:14;;;;;;;;;;;;;;;;;;5096211;28;19987;-67
2022/12/29 00:50:40;;;;;;;;;;;;;;;;;;5096249;28;19909;-67
2022/12/29 00:53:06;;;;;;;;;;;;;;;;;;5095791;28;19995;-67
2022/12/29 00:55:32;;;;;;;;;;;;;;;;;;5096104;28;19908;-67
2022/12/29 00:57:58;;;;;;;;;;;;;;;;;;5094691;28;19953;-67
2022/12/29 01:00:24;;;;;;;;;;;;;;;;;;5095370;28;19920;-67
2022/12/29 01:02:50;;;;;;;;;;;;;;;;;;5094745;28;19913;-67
2022/12/29 01:05:16;;;;;;;;;;;;;;;;;;5095904;28;20290;-67
2022/12/29 01:07:42;;;;;;;;;;;;;;;;;;5094218;28;20391;-67
2022/12/29 01:10:11;;;;;;;;;;;;;;;;;;5095876;28;20379;-67
2022/12/29 01:12:40;;;;;;;;;;;;;;;;;;5095952;28;19908;-68
2022/12/29 01:15:06;;;;;;;;;;;;;;;;;;5095373;28;19915;-67
2022/12/29 01:17:32;;;;;;;;;;;;;;;;;;5096292;28;20260;-67
2022/12/29 01:19:57;;;;;;;;;;;;;;;;;;5095601;28;20313;-67
2022/12/29 01:22:23;;;;;;;;;;;;;;;;;;5093863;28;19916;-67
2022/12/29 01:24:49;;;;;;;;;;;;;;;;;;5095469;28;20281;-67
2022/12/29 01:27:15;;;;;;;;;;;;;;;;;;5095505;28;20275;-67
2022/12/29 01:29:41;;;;;;;;;;;;;;;;;;5095092;28;20356;-67
2022/12/29 01:32:07;;;;;;;;;;;;;;;;;;5094225;28;20410;-67
2022/12/29 01:34:33;;;;;;;;;;;;;;;;;;5094987;28;19939;-67
2022/12/29 01:36:59;;;;;;;;;;;;;;;;;;5094010;28;19908;-67
2022/12/29 01:39:25;;;;;;;;;;;;;;;;;;5095425;28;19908;-67
2022/12/29 01:41:51;;;;;;;;;;;;;;;;;;5093503;28;19916;-67
2022/12/29 01:44:17;;;;;;;;;;;;;;;;;;5095010;28;19961;-67
2022/12/29 01:46:43;;;;;;;;;;;;;;;;;;5094732;28;19908;-67
2022/12/29 01:49:09;;;;;;;;;;;;;;;;;;5094595;28;19915;-67
2022/12/29 01:51:34;;;;;;;;;;;;;;;;;;5095224;28;19915;-67
2022/12/29 01:54:00;;;;;;;;;;;;;;;;;;5093749;28;20010;-67
2022/12/29 01:56:26;;;;;;;;;;;;;;;;;;5094713;28;19908;-68
2022/12/29 01:58:52;;;;;;;;;;;;;;;;;;5094937;28;19908;-67
2022/12/29 02:01:18;;;;;;;;;;;;;;;;;;5094576;28;19920;-68
2022/12/29 02:03:44;;;;;;;;;;;;;;;;;;5094534;28;19987;-67
2022/12/29 02:06:10;;;;;;;;;;;;;;;;;;5094965;28;19958;-67
2022/12/29 02:08:36;;;;;;;;;;;;;;;;;;5093443;28;19908;-67
2022/12/29 02:11:02;;;;;;;;;;;;;;;;;;5092967;28;19954;-67
2022/12/29 02:13:28;;;;;;;;;;;;;;;;;;5094602;28;19912;-67
2022/12/29 02:15:54;;;;;;;;;;;;;;;;;;5093315;28;20015;-67
2022/12/29 02:18:20;;;;;;;;;;;;;;;;;;5094194;28;19912;-67
2022/12/29 02:20:46;;;;;;;;;;;;;;;;;;5094434;28;19919;-67
2022/12/29 02:23:12;;;;;;;;;;;;;;;;;;5094494;28;19912;-67
2022/12/29 02:25:37;;;;;;;;;;;;;;;;;;5094080;28;19915;-67
2022/12/29 02:28:03;;;;;;;;;;;;;;;;;;5094369;28;19908;-67
2022/12/29 02:30:29;;;;;;;;;;;;;;;;;;5094342;28;19931;-67
2022/12/29 02:32:55;;;;;;;;;;;;;;;;;;5093992;28;19962;-67
2022/12/29 02:35:21;;;;;;;;;;;;;;;;;;5094315;28;19908;-67
2022/12/29 02:37:47;;;;;;;;;;;;;;;;;;5093906;28;19908;-67
2022/12/29 02:40:13;;;;;;;;;;;;;;;;;;5092912;28;20253;-67
2022/12/29 02:42:39;;;;;;;;;;;;;;;;;;5092869;28;20372;-67
2022/12/29 02:45:05;;;;;;;;;;;;;;;;;;5093843;28;20441;-67
2022/12/29 02:47:31;;;;;;;;;;;;;;;;;;5094448;28;20414;-67
2022/12/29 02:49:57;;;;;;;;;;;;;;;;;;5094046;28;19908;-67
2022/12/29 02:52:23;;;;;;;;;;;;;;;;;;5093719;28;19912;-67
2022/12/29 02:54:49;;;;;;;;;;;;;;;;;;5094029;28;19994;-67
2022/12/29 02:57:15;;;;;;;;;;;;;;;;;;5092553;28;19912;-67
2022/12/29 02:59:40;;;;;;;;;;;;;;;;;;5093637;28;20041;-67
2022/12/29 03:02:20;;;;;;;;;;;;;;;;;;5093664;28;20265;-67
2022/12/29 03:04:46;;;;;;;;;;;;;;;;;;5092662;28;19943;-67
2022/12/29 03:07:12;;;;;;;;;;;;;;;;;;5093535;28;19970;-67
2022/12/29 03:09:38;;;;;;;;;;;;;;;;;;5093884;28;19912;-67
2022/12/29 03:12:10;;;;;;;;;;;;;;;;;;5093854;28;19995;-67
2022/12/29 03:17:20;;;;;;;;;;;;;;;;;;5093861;28;19962;-67
2022/12/29 03:19:46;;;;;;;;;;;;;;;;;;5093800;28;19912;-67
2022/12/29 03:22:27;;;;;;;;;;;;;;;;;;5093336;28;19962;-67
2022/12/29 03:24:53;;;;;;;;;;;;;;;;;;5093911;28;19915;-67
2022/12/29 03:27:19;;;;;;;;;;;;;;;;;;5092136;28;20407;-67
2022/12/29 03:29:45;;;;;;;;;;;;;;;;;;5093745;28;19911;-67
2022/12/29 03:32:11;;;;;;;;;;;;;;;;;;5093696;28;19915;-67
2022/12/29 03:34:37;;;;;;;;;;;;;;;;;;5093317;28;19908;-67
2022/12/29 03:37:03;;;;;;;;;;;;;;;;;;5093634;28;19908;-67
2022/12/29 03:39:29;;;;;;;;;;;;;;;;;;5092321;28;19953;-66
2022/12/29 03:41:56;;;;;;;;;;;;;;;;;;5091849;28;19916;-67
2022/12/29 03:44:22;;;;;;;;;;;;;;;;;;5092301;28;19954;-66
2022/12/29 03:46:47;;;;;;;;;;;;;;;;;;5093580;28;19908;-66
2022/12/29 03:49:13;;;;;;;;;;;;;;;;;;5093122;28;19912;-66
2022/12/29 03:51:39;;;;;;;;;;;;;;;;;;5093459;28;19912;-67
2022/12/29 03:54:06;;;;;;;;;;;;;;;;;;5092256;28;19942;-67
2022/12/29 03:56:31;;;;;;;;;;;;;;;;;;5091891;28;20004;-68
2022/12/29 03:58:57;;;;;;;;;;;;;;;;;;5093450;28;19951;-68
2022/12/29 04:01:23;;;;;;;;;;;;;;;;;;5093110;28;19920;-67
2022/12/29 04:03:49;;;;;;;;;;;;;;;;;;5093069;28;19912;-68
2022/12/29 04:06:15;;;;;;;;;;;;;;;;;;5093730;28;20364;-67
2022/12/29 04:08:41;;;;;;;;;;;;;;;;;;5093516;28;20360;-67
2022/12/29 04:11:07;;;;;;;;;;;;;;;;;;5096616;28;19908;-67
2022/12/29 04:13:33;;;;;;;;;;;;;;;;;;5097041;28;19909;-67
2022/12/29 04:15:59;;;;;;;;;;;;;;;;;;5096941;28;19912;-68
2022/12/29 04:18:25;;;;;;;;;;;;;;;;;;5096487;28;19908;-67
2022/12/29 04:21:00;;;;;;;;;;;;;;;;;;5096870;28;20317;-67
2022/12/29 04:23:26;;;;;;;;;;;;;;;;;;5096430;28;19926;-68
2022/12/29 04:25:52;;;;;;;;;;;;;;;;;;5095532;28;20261;-68
2022/12/29 04:28:18;;;;;;;;;;;;;;;;;;5096894;28;19909;-67
2022/12/29 04:30:43;;;;;;;;;;;;;;;;;;5096683;28;19912;-68
2022/12/29 04:33:09;;;;;;;;;;;;;;;;;;5096805;28;19919;-67
2022/12/29 04:35:35;;;;;;;;;;;;;;;;;;5096596;28;19912;-68
2022/12/29 04:38:01;;;;;;;;;;;;;;;;;;5096077;28;19908;-68
2022/12/29 04:40:27;;;;;;;;;;;;;;;;;;5095053;28;19947;-68
2022/12/29 04:42:53;;;;;;;;;;;;;;;;;;5096405;28;19912;-68
2022/12/29 04:45:19;;;;;;;;;;;;;;;;;;5095957;28;19908;-68
2022/12/29 04:47:48;;;;;;;;;;;;;;;;;;5096346;28;19908;-68
2022/12/29 04:50:14;;;;;;;;;;;;;;;;;;5096283;28;20387;-68
2022/12/29 04:52:40;;;;;;;;;;;;;;;;;;5095913;28;19912;-68
2022/12/29 04:55:05;;;;;;;;;;;;;;;;;;5096176;28;19908;-68
2022/12/29 04:57:31;;;;;;;;;;;;;;;;;;5096378;28;19999;-68
2022/12/29 04:59:57;;;;;;;;;;;;;;;;;;5095519;28;19962;-68
2022/12/29 05:02:23;;;;;;;;;;;;;;;;;;5095951;28;19974;-68
2022/12/29 05:04:49;;;;;;;;;;;;;;;;;;5094698;28;19913;-68
2022/12/29 05:07:15;;;;;;;;;;;;;;;;;;5095598;28;19962;-68
2022/12/29 05:09:41;;;;;;;;;;;;;;;;;;5095978;28;19934;-68
2022/12/29 05:12:07;;;;;;;;;;;;;;;;;;5094587;28;19912;-68
2022/12/29 05:14:33;;;;;;;;;;;;;;;;;;5095462;28;20002;-68
2022/12/29 05:16:59;;;;;;;;;;;;;;;;;;5095945;28;20257;-68
2022/12/29 05:19:25;;;;;;;;;;;;;;;;;;5095708;28;20361;-68
2022/12/29 05:21:51;;;;;;;;;;;;;;;;;;5095311;28;20374;-67
2022/12/29 05:24:17;;;;;;;;;;;;;;;;;;5094350;28;19915;-68
2022/12/29 05:26:43;;;;;;;;;;;;;;;;;;5095141;28;19908;-68
2022/12/29 05:29:09;;;;;;;;;;;;;;;;;;5095475;28;19912;-68
2022/12/29 05:31:35;;;;;;;;;;;;;;;;;;5095473;28;19908;-68
2022/12/29 05:34:01;;;;;;;;;;;;;;;;;;5095051;28;19908;-68
2022/12/29 05:36:27;;;;;;;;;;;;;;;;;;5095310;28;19916;-68
2022/12/29 05:38:53;;;;;;;;;;;;;;;;;;5094054;28;19908;-68
2022/12/29 05:41:19;;;;;;;;;;;;;;;;;;5093468;28;20019;-68
2022/12/29 05:43:45;;;;;;;;;;;;;;;;;;5095234;28;19931;-68
2022/12/29 05:46:10;;;;;;;;;;;;;;;;;;5095174;28;19908;-68
2022/12/29 05:48:36;;;;;;;;;;;;;;;;;;5094719;28;19922;-68
2022/12/29 05:51:02;;;;;;;;;;;;;;;;;;5093629;28;19908;-68
2022/12/29 05:53:28;;;;;;;;;;;;;;;;;;5095036;28;19908;-68
2022/12/29 05:55:54;;;;;;;;;;;;;;;;;;5094588;28;19912;-68
2022/12/29 05:58:20;;;;;;;;;;;;;;;;;;5094943;28;20329;-68
2022/12/29 06:00:46;;;;;;;;;;;;;;;;;;5095009;28;20380;-68
2022/12/29 06:03:12;;;;;;;;;;;;;;;;;;5093218;28;20352;-68
2022/12/29 06:05:38;;;;;;;;;;;;;;;;;;5094763;28;19950;-68
2022/12/29 06:08:04;;;;;;;;;;;;;;;;;;5094904;28;19908;-67
2022/12/29 06:10:30;;;;;;;;;;;;;;;;;;5094388;28;20284;-68
2022/12/29 06:12:56;;;;;;;;;;;;;;;;;;5094194;28;19915;-68
2022/12/29 06:15:22;;;;;;;;;;;;;;;;;;5093636;28;19915;-68
2022/12/29 06:17:48;;;;;;;;;;;;;;;;;;5093127;28;19919;-68
2022/12/29 06:20:14;;;;;;;;;;;;;;;;;;5080509;28;20484;-68
2022/12/29 06:22:40;;;;;;;;;;;;;;;;;;5093043;28;19927;-67
2022/12/29 06:25:06;;;;;;;;;;;;;;;;;;5092807;28;19953;-68
2022/12/29 06:27:32;;;;;;;;;;;;;;;;;;5092070;28;19950;-68
2022/12/29 06:29:58;;;;;;;;;;;;;;;;;;5107691;28;19908;-68
2022/12/29 06:32:24;;;;;;;;;;;;;;;;;;5092829;28;19927;-69
2022/12/29 06:34:49;;;;;;;;;;;;;;;;;;5093687;28;19912;-70
2022/12/29 06:37:15;;;;;;;;;;;;;;;;;;5092290;28;19908;-70
2022/12/29 06:39:43;;;;;;;;;;;;;;;;;;5092620;28;19908;-69
2022/12/29 06:42:09;;;;;;;;;;;;;;;;;;5090489;28;20023;-70
2022/12/29 06:44:35;;;;;;;;;;;;;;;;;;5111060;28;20021;-69
2022/12/29 06:47:01;;;;;;;;;;;;;;;;;;5111947;28;19978;-69
2022/12/29 06:49:27;;;;;;;;;;;;;;;;;;5111830;28;19930;-69
2022/12/29 06:51:52;;;;;;;;;;;;;;;;;;5112230;28;19908;-68
2022/12/29 06:54:18;;;;;;;;;;;;;;;;;;5113883;28;19908;-69
2022/12/29 06:56:44;;;;;;;;;;;;;;;;;;5112231;28;19912;-68
2022/12/29 06:59:10;;;;;;;;;;;;;;;;;;5097665;28;19998;-69
2022/12/29 07:01:36;;;;;;;;;;;;;;;;;;5092793;28;19973;-69
2022/12/29 07:04:02;;;;;;;;;;;;;;;;;;5079385;28;19917;-68
2022/12/29 07:06:29;;;;;;;;;;;;;;;;;;5053789;28;20257;-69
2022/12/29 07:08:57;;;;;;;;;;;;;;;;;;5072310;28;19913;-69
2022/12/29 07:11:24;;;;;;;;;;;;;;;;;;5072414;28;19920;-70
2022/12/29 07:13:49;;;;;;;;;;;;;;;;;;5049845;28;19921;-71
2022/12/29 07:16:15;;;;;;;;;;;;;;;;;;5054718;28;19912;-70
2022/12/29 07:18:41;;;;;;;;;;;;;;;;;;5071272;28;19953;-70
2022/12/29 07:21:07;;;;;;;;;;;;;;;;;;5052158;28;19916;-71
2022/12/29 07:23:33;;;;;;;;;;;;;;;;;;5072352;28;19998;-71
2022/12/29 07:25:59;;;;;;;;;;;;;;;;;;5071852;28;19921;-70
2022/12/29 07:28:25;;;;;;;;;;;;;;;;;;5068941;28;19967;-73
2022/12/29 07:30:51;;;;;;;;;;;;;;;;;;5055516;28;19909;-72
2022/12/29 07:33:17;;;;;;;;;;;;;;;;;;5092471;28;19908;-71
2022/12/29 07:35:43;;;;;;;;;;;;;;;;;;5085185;28;19955;-69
2022/12/29 07:38:09;;;;;;;;;;;;;;;;;;5090685;28;19923;-69
2022/12/29 07:40:35;;;;;;;;;;;;;;;;;;5076239;28;19936;-69
2022/12/29 07:43:03;;;;;;;;;;;;;;;;;;5071311;28;19908;-68
2022/12/29 07:45:30;;;;;;;;;;;;;;;;;;5075425;28;20375;-70
2022/12/29 07:47:57;;;;;;;;;;;;;;;;;;5074356;28;19920;-69
2022/12/29 07:50:25;;;;;;;;;;;;;;;;;;5075621;28;19913;-69
2022/12/29 07:52:51;;;;;;;;;;;;;;;;;;5057995;28;19970;-68
2022/12/29 07:55:17;;;;;;;;;;;;;;;;;;5056539;28;19908;-68
2022/12/29 07:57:43;;;;;;;;;;;;;;;;;;5075443;28;20351;-68
2022/12/29 08:00:09;;;;;;;;;;;;;;;;;;5060114;28;19913;-68
2022/12/29 08:02:35;;;;;;;;;;;;;;;;;;5095831;28;20008;-69
2022/12/29 08:05:01;;;;;;;;;;;;;;;;;;5096162;28;19908;-69
2022/12/29 08:07:27;;;;;;;;;;;;;;;;;;5085965;28;19912;-69
2022/12/29 08:09:59;;;;;;;;;;;;;;;;;;5094518;28;19930;-69
2022/12/29 08:12:25;;;;;;;;;;;;;;;;;;5093349;28;19912;-69
2022/12/29 08:14:52;;;;;;;;;;;;;;;;;;5094612;28;19931;-69
2022/12/29 08:17:18;;;;;;;;;;;;;;;;;;5093392;28;19920;-70
2022/12/29 08:19:44;;;;;;;;;;;;;;;;;;5081617;28;19939;-70
2022/12/29 08:22:10;;;;;;;;;;;;;;;;;;5096497;28;19963;-71
2022/12/29 08:24:36;;;;;;;;;;;;;;;;;;5094209;28;19908;-70
2022/12/29 08:27:02;;;;;;;;;;;;;;;;;;5096076;28;19908;-70
2022/12/29 08:29:28;;;;;;;;;;;;;;;;;;5095623;28;19908;-69
2022/12/29 08:31:54;;;;;;;;;;;;;;;;;;5094681;28;19908;-70
2022/12/29 08:34:20;;;;;;;;;;;;;;;;;;5094205;28;19912;-67
2022/12/29 08:36:46;;;;;;;;;;;;;;;;;;5095228;28;19918;-67
2022/12/29 08:39:12;;;;;;;;;;;;;;;;;;5095511;28;19912;-68
2022/12/29 08:41:38;;;;;;;;;;;;;;;;;;5091207;28;19912;-68
2022/12/29 08:44:04;;;;;;;;;;;;;;;;;;5089045;28;19915;-68
2022/12/29 08:46:31;;;;;;;;;;;;;;;;;;5093532;28;20002;-68
2022/12/29 08:49:04;;;;;;;;;;;;;;;;;;5095703;28;20000;-69
2022/12/29 08:51:30;;;;;;;;;;;;;;;;;;5095062;28;20284;-69
2022/12/29 08:53:57;;;;;;;;;;;;;;;;;;5094267;28;19908;-70
2022/12/29 08:56:28;;;;;;;;;;;;;;;;;;5095091;28;19908;-69
2022/12/29 08:58:54;;;;;;;;;;;;;;;;;;5094157;28;19915;-70
2022/12/29 09:01:20;;;;;;;;;;;;;;;;;;5094849;28;19930;-69
2022/12/29 09:03:49;;;;;;;;;;;;;;;;;;5095656;28;19912;-69
2022/12/29 09:06:15;;;;;;;;;;;;;;;;;;5093713;28;19915;-69
2022/12/29 09:08:41;;;;;;;;;;;;;;;;;;5093571;28;19909;-68
2022/12/29 09:11:07;;;;;;;;;;;;;;;;;;5092493;28;19931;-68
2022/12/29 09:13:33;;;;;;;;;;;;;;;;;;5092591;28;19908;-70
2022/12/29 09:15:59;;;;;;;;;;;;;;;;;;5092095;28;20023;-69
2022/12/29 09:18:25;;;;;;;;;;;;;;;;;;5093038;28;19951;-68
2022/12/29 09:20:51;;;;;;;;;;;;;;;;;;5092134;28;19923;-69
2022/12/29 09:23:21;;;;;;;;;;;;;;;;;;5092569;28;19912;-68
2022/12/29 09:25:48;;;;;;;;;;;;;;;;;;5091603;28;19909;-69
2022/12/29 09:28:19;;;;;;;;;;;;;;;;;;5091731;28;20210;-69
2022/12/29 09:30:48;;;;;;;;;;;;;;;;;;5092241;28;19912;-68
2022/12/29 09:33:14;;;;;;;;;;;;;;;;;;5093186;28;19908;-68
2022/12/29 09:35:40;;;;;;;;;;;;;;;;;;5091318;28;19914;-68
2022/12/29 09:38:06;;;;;;;;;;;;;;;;;;5094836;28;19958;-68
2022/12/29 09:40:32;;;;;;;;;;;;;;;;;;5092096;28;19908;-68
2022/12/29 09:42:58;;;;;;;;;;;;;;;;;;5094335;28;19919;-68
2022/12/29 09:45:24;;;;;;;;;;;;;;;;;;5094368;28;19908;-69
2022/12/29 09:47:50;;;;;;;;;;;;;;;;;;5094038;28;20022;-69
2022/12/29 09:50:16;;;;;;;;;;;;;;;;;;5092289;28;20353;-68
2022/12/29 09:52:42;;;;;;;;;;;;;;;;;;5087464;28;20276;-69
2022/12/29 09:55:08;;;;;;;;;;;;;;;;;;5091363;28;19962;-69
2022/12/29 09:57:34;;;;;;;;;;;;;;;;;;5091334;28;19909;-69
2022/12/29 10:00:00;;;;;;;;;;;;;;;;;;5088555;28;19991;-68
2022/12/29 10:02:26;;;;;;;;;;;;;;;;;;5091955;28;19924;-69
2022/12/29 10:04:52;;;;;;;;;;;;;;;;;;5090947;28;19908;-69
2022/12/29 10:07:19;;;;;;;;;;;;;;;;;;5083098;28;19915;-69
2022/12/29 10:09:45;;;;;;;;;;;;;;;;;;5069884;28;20369;-69
2022/12/29 10:12:11;;;;;;;;;;;;;;;;;;5073976;28;19923;-68
2022/12/29 10:14:38;;;;;;;;;;;;;;;;;;5097288;28;19912;-69
2022/12/29 10:17:04;;;;;;;;;;;;;;;;;;5090144;28;19916;-69
2022/12/29 10:19:32;;;;;;;;;;;;;;;;;;5082796;28;20583;-69
2022/12/29 10:21:58;;;;;;;;;;;;;;;;;;5089639;28;19998;-68
2022/12/29 10:24:24;;;;;;;;;;;;;;;;;;5086830;28;20321;-68
2022/12/29 10:26:50;;;;;;;;;;;;;;;;;;5091857;28;20280;-69
2022/12/29 10:29:17;;;;;;;;;;;;;;;;;;5091172;28;20367;-68
2022/12/29 10:31:49;;;;;;;;;;;;;;;;;;5093105;28;19923;-68
2022/12/29 10:34:15;;;;;;;;;;;;;;;;;;5091099;28;19915;-69
2022/12/29 10:36:41;;;;;;;;;;;;;;;;;;5093284;28;19908;-68
2022/12/29 10:39:07;;;;;;;;;;;;;;;;;;5091831;28;19909;-68
2022/12/29 10:41:34;;;;;;;;;;;;;;;;;;5090876;28;20015;-68
2022/12/29 10:44:08;;;;;;;;;;;;;;;;;;5079070;28;19920;-68
2022/12/29 10:46:34;;;;;;;;;;;;;;;;;;5079320;28;19908;-69
2022/12/29 10:49:01;;;;;;;;;;;;;;;;;;5069889;28;19960;-70
2022/12/29 10:51:27;;;;;;;;;;;;;;;;;;5078859;28;19915;-69
2022/12/29 10:53:54;;;;;;;;;;;;;;;;;;5092453;28;19934;-70
2022/12/29 10:56:20;;;;;;;;;;;;;;;;;;5091145;28;19912;-70
2022/12/29 10:58:46;;;;;;;;;;;;;;;;;;5090924;28;19916;-70
2022/12/29 11:01:12;;;;;;;;;;;;;;;;;;5089066;28;20030;-69
2022/12/29 11:03:38;;;;;;;;;;;;;;;;;;5087555;28;19908;-69
2022/12/29 11:06:04;;;;;;;;;;;;;;;;;;5079273;28;20351;-69
2022/12/29 11:08:30;;;;;;;;;;;;;;;;;;5083350;28;20295;-69
2022/12/29 11:12:40;;;;;;;;;;;;;;;;;;5085389;27;19920;-69
2022/12/29 11:15:09;;;;;;;;;;;;;;;;;;5089127;28;19958;-68
2022/12/29 11:17:40;;;;;;;;;;;;;;;;;;5075639;28;19908;-66
2022/12/29 11:20:06;;;;;;;;;;;;;;;;;;5073691;28;19917;-66
2022/12/29 11:22:31;;;;;;;;;;;;;;;;;;5079807;28;20022;-69
2022/12/29 11:29:01;;;;;;;;;;;;;;;;;;5109531;27;19923;-66
2022/12/29 11:31:27;;;;;;;;;;;;;;;;;;5110922;28;20006;-68
2022/12/29 11:40:47;;;;;;;;;;;;;;;;;;5155004;27;20049;-68
2022/12/29 11:43:13;;;;;;;;;;;;;;;;;;5141644;27;19951;-67
2022/12/29 11:49:46;;;;;;;;;;;;;;;;;;5086673;28;19920;-67
2022/12/29 11:53:05;;;;;;;;;;;;;;;;;;5110217;27;20010;-67
2022/12/29 11:59:54;;;;;;;;;;;;;;;;;;5090729;27;20384;-66
2022/12/29 12:04:27;;;;;;;;;;;;;;;;;;5109114;27;19916;-67
2022/12/29 12:07:53;;;;;;;;;;;;;;;;;;5089420;27;19923;-67
2022/12/29 12:10:19;;;;;;;;;;;;;;;;;;5090105;28;20006;-66
2022/12/29 12:12:45;;;;;;;;;;;;;;;;;;5090550;28;19924;-66
2022/12/29 12:24:53;;;;;;;;;;;;;;;;;;5129737;27;19994;-67
2022/12/29 12:27:19;;;;;;;;;;;;;;;;;;5130046;28;19966;-67
2022/12/29 12:29:45;;;;;;;;;;;;;;;;;;5128537;28;20347;-67
2022/12/29 12:32:11;;;;;;;;;;;;;;;;;;5130332;28;19915;-66
2022/12/29 12:36:15;;;;;;;;;;;;;;;;;;5089092;28;19916;-67
2022/12/29 12:42:52;;;;;;;;;;;;;;;;;;5088717;27;20485;-66
2022/12/29 12:46:16;;;;;;;;;;;;;;;;;;5109786;27;19916;-66
2022/12/29 12:48:42;;;;;;;;;;;;;;;;;;5108146;28;19918;-66
2022/12/29 13:01:06;;;;;;;;;;;;;;;;;;5091424;28;19923;-68
2022/12/29 13:05:38;;;;;;;;;;;;;;;;;;5111338;27;20261;-67
2022/12/29 13:08:04;;;;;;;;;;;;;;;;;;5111524;28;19912;-67
2022/12/29 13:13:47;;;;;;;;;;;;;;;;;;5091509;27;19923;-67
2022/12/29 13:23:31;;;;;;;;;;;;;;;;;;5111905;27;19916;-66
2022/12/29 13:27:31;;;;;;;;;;;;;;;;;;5103949;27;19926;-67
2022/12/29 13:29:57;;;;;;;;;;;;;;;;;;5091299;28;19984;-66
2022/12/29 13:40:03;;;;;;;;;;;;;;;;;;5109201;27;20288;-66
2022/12/29 13:42:29;;;;;;;;;;;;;;;;;;5111032;28;19912;-67
2022/12/29 13:45:35;;;;;;;;;;;;;;;;;;5111899;27;19912;-67
2022/12/29 13:48:01;;;;;;;;;;;;;;;;;;5110731;28;20007;-67
2022/12/29 13:51:26;;;;;;;;;;;;;;;;;;5109577;27;20284;-66
2022/12/29 13:55:14;;;;;;;;;;;;;;;;;;5089799;27;19916;-66
2022/12/29 14:02:02;;;;;;;;;;;;;;;;;;5069881;28;19923;-68
2022/12/29 14:04:28;;;;;;;;;;;;;;;;;;5070894;28;19912;-68
2022/12/29 14:09:26;;;;;;;;;;;;;;;;;;5153061;27;20010;-68
2022/12/29 14:15:40;;;;;;;;;;;;;;;;;;5091265;27;20280;-67
2022/12/29 14:18:06;;;;;;;;;;;;;;;;;;5091608;28;20256;-67
2022/12/29 14:21:35;;;;;;;;;;;;;;;;;;5152600;27;20010;-67
2022/12/29 14:25:42;;;;;;;;;;;;;;;;;;5112454;27;20280;-67
2022/12/29 14:28:43;;;;;;;;;;;;;;;;;;5111856;27;19916;-67
2022/12/29 14:31:09;;;;;;;;;;;;;;;;;;5111577;28;20368;-67
2022/12/29 14:33:34;;;;;;;;;;;;;;;;;;5111554;28;19914;-67
2022/12/29 14:38:14;;;;;;;;;;;;;;;;;;5112334;27;20390;-67
2022/12/29 14:40:40;;;;;;;;;;;;;;;;;;5111701;28;20011;-67
2022/12/29 14:43:06;;;;;;;;;;;;;;;;;;5109895;28;19908;-66
2022/12/29 14:45:59;;;;;;;;;;;;;;;;;;5144854;27;19916;-67
2022/12/29 14:53:50;;;;;;;;;;;;;;;;;;5112232;27;19915;-68
2022/12/29 14:58:10;;;;;;;;;;;;;;;;;;5070868;28;19923;-67
2022/12/29 15:01:00;;;;;;;;;;;;;;;;;;5111806;27;19923;-67
2022/12/29 15:03:26;;;;;;;;;;;;;;;;;;5109907;28;20007;-67
2022/12/29 15:07:16;;;;;;;;;;;;;;;;;;5008214;28;19936;-67
2022/12/29 15:09:43;;;;;;;;;;;;;;;;;;5008181;28;19913;-68
2022/12/29 15:12:09;;;;;;;;;;;;;;;;;;5109490;27;20389;-67
2022/12/29 15:16:04;;;;;;;;;;;;;;;;;;5111761;27;19938;-68
2022/12/29 15:18:30;;;;;;;;;;;;;;;;;;5111363;28;19912;-67
2022/12/29 15:20:56;;;;;;;;;;;;;;;;;;5111682;28;19908;-68
2022/12/29 15:23:21;;;;;;;;;;;;;;;;;;5112147;28;20356;-68
2022/12/29 15:25:47;;;;;;;;;;;;;;;;;;5111179;28;19908;-67
2022/12/29 15:28:13;;;;;;;;;;;;;;;;;;5111618;28;20253;-68
2022/12/29 15:30:40;;;;;;;;;;;;;;;;;;5111540;28;20399;-68
2022/12/29 15:33:07;;;;;;;;;;;;;;;;;;5111222;28;19916;-68
2022/12/29 15:35:34;;;;;;;;;;;;;;;;;;5111283;28;19924;-68
2022/12/29 15:38:00;;;;;;;;;;;;;;;;;;5111439;28;19908;-67
2022/12/29 15:40:26;;;;;;;;;;;;;;;;;;5110937;28;19908;-66
2022/12/29 15:42:53;;;;;;;;;;;;;;;;;;5111556;28;20403;-67
2022/12/29 15:45:19;;;;;;;;;;;;;;;;;;5109921;28;19908;-68
2022/12/29 15:47:46;;;;;;;;;;;;;;;;;;5109564;28;19970;-67
2022/12/29 15:50:12;;;;;;;;;;;;;;;;;;5111104;28;19947;-67
2022/12/29 15:52:38;;;;;;;;;;;;;;;;;;5110756;28;19945;-67
2022/12/29 15:55:04;;;;;;;;;;;;;;;;;;5110968;28;19923;-67
2022/12/29 15:57:30;;;;;;;;;;;;;;;;;;5111073;28;19908;-67
2022/12/29 15:59:56;;;;;;;;;;;;;;;;;;5109350;28;19962;-67
2022/12/29 16:02:22;;;;;;;;;;;;;;;;;;5110834;28;20325;-67
2022/12/29 16:04:48;;;;;;;;;;;;;;;;;;5111148;28;19908;-69
2022/12/29 16:07:13;;;;;;;;;;;;;;;;;;5110467;28;20016;-67
2022/12/29 16:09:39;;;;;;;;;;;;;;;;;;5110816;28;19915;-67
2022/12/29 16:12:05;;;;;;;;;;;;;;;;;;5110633;28;19909;-67
2022/12/29 16:14:31;;;;;;;;;;;;;;;;;;5108684;28;19927;-67
2022/12/29 16:16:57;;;;;;;;;;;;;;;;;;5109371;28;19915;-67
2022/12/29 16:19:23;;;;;;;;;;;;;;;;;;5110715;28;20346;-67
2022/12/29 16:21:49;;;;;;;;;;;;;;;;;;5108420;28;19908;-67
2022/12/29 16:24:15;;;;;;;;;;;;;;;;;;5110483;28;20240;-67
2022/12/29 16:26:43;;;;;;;;;;;;;;;;;;5100479;28;19912;-67
2022/12/29 16:29:09;;;;;;;;;;;;;;;;;;5096383;28;19908;-67
2022/12/29 16:31:35;;;;;;;;;;;;;;;;;;5096710;28;19908;-67
2022/12/29 16:34:01;;;;;;;;;;;;;;;;;;5096565;28;19912;-68
2022/12/29 16:36:27;;;;;;;;;;;;;;;;;;5096208;28;19912;-66
2022/12/29 16:38:53;;;;;;;;;;;;;;;;;;5096604;28;19912;-66
2022/12/29 16:41:19;;;;;;;;;;;;;;;;;;5096548;28;19915;-68
2022/12/29 16:43:45;;;;;;;;;;;;;;;;;;5096087;28;19915;-68
2022/12/29 16:46:11;;;;;;;;;;;;;;;;;;5096391;28;19953;-66
2022/12/29 16:48:37;;;;;;;;;;;;;;;;;;5096309;28;19922;-67
2022/12/29 16:51:04;;;;;;;;;;;;;;;;;;5095914;28;20371;-67
2022/12/29 16:53:29;;;;;;;;;;;;;;;;;;5096178;28;20347;-67
2022/12/29 16:55:55;;;;;;;;;;;;;;;;;;5095602;28;20007;-67
2022/12/29 16:58:21;;;;;;;;;;;;;;;;;;5096236;28;19962;-67
2022/12/29 17:00:48;;;;;;;;;;;;;;;;;;5096237;28;19908;-68
2022/12/29 17:03:14;;;;;;;;;;;;;;;;;;5095908;28;19908;-68
2022/12/29 17:05:40;;;;;;;;;;;;;;;;;;5094780;28;19912;-67
2022/12/29 17:08:06;;;;;;;;;;;;;;;;;;5094831;28;19955;-67
2022/12/29 17:13:16;;;;;;;;;;;;;;;;;;5096058;28;20326;-67
2022/12/29 17:15:42;;;;;;;;;;;;;;;;;;5095672;28;19924;-68
2022/12/29 17:18:09;;;;;;;;;;;;;;;;;;5094234;28;19964;-67
2022/12/29 17:20:35;;;;;;;;;;;;;;;;;;5095968;28;20379;-67
2022/12/29 17:23:01;;;;;;;;;;;;;;;;;;5094558;28;19956;-68
2022/12/29 17:25:27;;;;;;;;;;;;;;;;;;5094056;28;19911;-68
2022/12/29 17:27:53;;;;;;;;;;;;;;;;;;5095702;28;19919;-68
2022/12/29 17:30:19;;;;;;;;;;;;;;;;;;5095704;28;19908;-66
2022/12/29 17:32:45;;;;;;;;;;;;;;;;;;5095231;28;19908;-67
2022/12/29 17:35:11;;;;;;;;;;;;;;;;;;5094143;28;19916;-67
2022/12/29 17:37:37;;;;;;;;;;;;;;;;;;5093259;28;19908;-68
2022/12/29 17:40:03;;;;;;;;;;;;;;;;;;5095124;28;19916;-67
2022/12/29 17:42:31;;;;;;;;;;;;;;;;;;5095432;28;19915;-67
2022/12/29 17:44:58;;;;;;;;;;;;;;;;;;5095282;28;19908;-67
2022/12/29 17:47:24;;;;;;;;;;;;;;;;;;5095170;28;19923;-67
2022/12/29 17:49:50;;;;;;;;;;;;;;;;;;5094029;28;19955;-67
2022/12/29 17:52:16;;;;;;;;;;;;;;;;;;5094773;28;19916;-67
2022/12/29 17:54:42;;;;;;;;;;;;;;;;;;5094074;28;19916;-67
2022/12/29 17:57:08;;;;;;;;;;;;;;;;;;5093801;28;19991;-68
2022/12/29 17:59:34;;;;;;;;;;;;;;;;;;5094914;28;19915;-68
2022/12/29 18:02:01;;;;;;;;;;;;;;;;;;5094845;28;19908;-67
2022/12/29 18:04:27;;;;;;;;;;;;;;;;;;5094966;28;20388;-67
2022/12/29 18:06:53;;;;;;;;;;;;;;;;;;5094625;28;19916;-68
2022/12/29 18:09:21;;;;;;;;;;;;;;;;;;5094942;28;19915;-68
2022/12/29 18:11:47;;;;;;;;;;;;;;;;;;5093635;28;19908;-68
2022/12/29 18:14:13;;;;;;;;;;;;;;;;;;5094176;28;19938;-68
2022/12/29 18:16:39;;;;;;;;;;;;;;;;;;5093519;28;19999;-68
2022/12/29 18:19:05;;;;;;;;;;;;;;;;;;5094805;28;19915;-67
2022/12/29 18:21:31;;;;;;;;;;;;;;;;;;5092988;28;20250;-67
2022/12/29 18:23:57;;;;;;;;;;;;;;;;;;5094674;28;19915;-67
2022/12/29 18:26:23;;;;;;;;;;;;;;;;;;5094728;28;20384;-67
2022/12/29 18:28:49;;;;;;;;;;;;;;;;;;5094201;28;19931;-66
2022/12/29 18:31:15;;;;;;;;;;;;;;;;;;5093241;28;19908;-68
2022/12/29 18:33:41;;;;;;;;;;;;;;;;;;5094613;28;19908;-68
2022/12/29 18:36:07;;;;;;;;;;;;;;;;;;5094068;28;20354;-67
2022/12/29 18:38:33;;;;;;;;;;;;;;;;;;5094710;28;19935;-67
2022/12/29 18:40:59;;;;;;;;;;;;;;;;;;5094684;28;20349;-67
2022/12/29 18:43:25;;;;;;;;;;;;;;;;;;5093936;28;19952;-67
2022/12/29 18:45:51;;;;;;;;;;;;;;;;;;5094344;28;19908;-68
2022/12/29 18:48:17;;;;;;;;;;;;;;;;;;5092699;28;19916;-67
2022/12/29 18:50:43;;;;;;;;;;;;;;;;;;5092767;28;19912;-67
2022/12/29 18:53:09;;;;;;;;;;;;;;;;;;5094404;28;20367;-68